Time;durP1;ratioP1;P1;durP2;ratioP2;P2;SDS_P1;SDS_P2;PMS_P1;PMS_P2;Temp;Humidity;BMP_temperature;BMP_pressure;BME280_temperature;BME280_humidity;BME280_pressure;Samples;Min_cycle;Max_cycle;Signal;HPM_P1;HPM_P2
2021/06/01 00:00:11;;;;;;;5.90;3.00;;;;;;;;;;5011869;28;20485;-78
2021/06/01 00:02:38;;;;;;;6.60;3.10;;;;;;;;;;4995490;28;20057;-77
2021/06/01 00:05:06;;;;;;;3.97;3.33;;;;;;;;;;4995231;28;20046;-79
2021/06/01 00:07:33;;;;;;;4.43;3.10;;;;;;;;;;4993204;28;20062;-78
2021/06/01 00:09:59;;;;;;;6.60;3.38;;;;;;;;;;4973655;28;20550;-78
2021/06/01 00:12:26;;;;;;;5.93;3.85;;;;;;;;;;4995104;28;20458;-79
2021/06/01 00:14:53;;;;;;;5.25;3.38;;;;;;;;;;4994460;28;20054;-78
2021/06/01 00:17:19;;;;;;;5.00;3.30;;;;;;;;;;4994390;28;20054;-78
2021/06/01 00:19:46;;;;;;;3.35;2.85;;;;;;;;;;4982120;28;20054;-78
2021/06/01 00:22:13;;;;;;;3.65;3.33;;;;;;;;;;5007041;28;20057;-78
2021/06/01 00:24:39;;;;;;;3.80;3.50;;;;;;;;;;4994451;28;20050;-77
2021/06/01 00:27:06;;;;;;;2.88;2.58;;;;;;;;;;4993548;28;20050;-78
2021/06/01 00:29:33;;;;;;;3.70;3.00;;;;;;;;;;4983432;28;20050;-78
2021/06/01 00:32:00;;;;;;;6.05;2.50;;;;;;;;;;4958075;28;20043;-77
2021/06/01 00:34:27;;;;;;;3.13;2.83;;;;;;;;;;4958322;28;20054;-78
2021/06/01 00:36:53;;;;;;;5.10;3.17;;;;;;;;;;4973958;28;20050;-78
2021/06/01 00:39:23;;;;;;;3.53;2.90;;;;;;;;;;4982432;28;20046;-78
2021/06/01 00:41:50;;;;;;;5.70;2.95;;;;;;;;;;4992692;28;20057;-77
2021/06/01 00:44:17;;;;;;;5.97;2.95;;;;;;;;;;4993201;28;20054;-76
2021/06/01 00:46:43;;;;;;;3.00;2.70;;;;;;;;;;4992337;28;20046;-76
2021/06/01 00:49:10;;;;;;;3.50;2.50;;;;;;;;;;4985911;28;20050;-76
2021/06/01 00:51:37;;;;;;;4.80;2.50;;;;;;;;;;4972977;28;20058;-76
2021/06/01 00:54:07;;;;;;;4.45;2.72;;;;;;;;;;4956737;28;20462;-76
2021/06/01 00:56:34;;;;;;;6.60;3.40;;;;;;;;;;4956435;28;20055;-77
2021/06/01 00:59:00;;;;;;;5.60;2.80;;;;;;;;;;4962976;28;20421;-77
2021/06/01 01:01:27;;;;;;;3.85;2.97;;;;;;;;;;5009822;28;20508;-76
2021/06/01 01:03:55;;;;;;;3.35;3.05;;;;;;;;;;4992074;28;20054;-76
2021/06/01 01:06:41;;;;;;;4.07;3.28;;;;;;;;;;4993657;28;20486;-78
2021/06/01 01:09:12;;;;;;;3.95;3.28;;;;;;;;;;4988342;28;20082;-78
2021/06/01 01:11:56;;;;;;;5.38;4.53;;;;;;;;;;4958032;28;20134;-77
2021/06/01 01:14:30;;;;;;;5.50;3.58;;;;;;;;;;4958419;28;20054;-78
2021/06/01 01:17:10;;;;;;;5.82;4.30;;;;;;;;;;4957364;28;20050;-78
2021/06/01 01:19:50;;;;;;;10.50;4.85;;;;;;;;;;4961817;28;20449;-76
2021/06/01 01:22:17;;;;;;;10.15;6.13;;;;;;;;;;5008270;28;20418;-76
2021/06/01 01:24:58;;;;;;;6.32;4.03;;;;;;;;;;4992009;28;20046;-77
2021/06/01 01:27:47;;;;;;;4.57;3.75;;;;;;;;;;4992296;28;20054;-76
2021/06/01 01:30:15;;;;;;;6.50;3.67;;;;;;;;;;4980456;28;20383;-76
2021/06/01 01:33:01;;;;;;;4.82;3.53;;;;;;;;;;4972531;28;20538;-76
2021/06/01 01:35:31;;;;;;;4.25;3.55;;;;;;;;;;4988200;28;20113;-76
2021/06/01 01:38:00;;;;;;;4.72;3.53;;;;;;;;;;4956470;28;20061;-76
2021/06/01 01:40:28;;;;;;;3.33;3.03;;;;;;;;;;4969544;28;21438;-81
2021/06/01 01:43:01;;;;;;;5.53;4.03;;;;;;;;;;4994415;28;20058;-81
2021/06/01 01:45:35;;;;;;;4.35;3.70;;;;;;;;;;4993821;28;20482;-81
2021/06/01 01:50:52;;;;;;;4.10;3.45;;;;;;;;;;4991698;28;20054;-82
2021/06/01 01:53:19;;;;;;;5.45;3.70;;;;;;;;;;4958544;28;20471;-81
2021/06/01 01:55:48;;;;;;;5.03;3.50;;;;;;;;;;4973935;28;20051;-81
2021/06/01 01:58:17;;;;;;;4.18;3.40;;;;;;;;;;4974017;28;20058;-81
2021/06/01 02:00:44;;;;;;;4.35;3.95;;;;;;;;;;4972809;28;20053;-81
2021/06/01 02:03:11;;;;;;;6.15;4.35;;;;;;;;;;4994009;28;20058;-80
2021/06/01 02:05:38;;;;;;;3.92;3.58;;;;;;;;;;4992842;28;20053;-80
2021/06/01 02:08:07;;;;;;;6.45;4.10;;;;;;;;;;4993484;28;20050;-80
2021/06/01 02:10:34;;;;;;;4.25;3.67;;;;;;;;;;4980136;28;20046;-80
2021/06/01 02:13:01;;;;;;;4.55;3.80;;;;;;;;;;4958270;28;20057;-81
2021/06/01 02:15:27;;;;;;;5.13;3.92;;;;;;;;;;4958377;28;20051;-80
2021/06/01 02:17:54;;;;;;;5.10;4.13;;;;;;;;;;4964274;28;20053;-80
2021/06/01 02:20:21;;;;;;;4.55;3.80;;;;;;;;;;4994150;28;20077;-79
2021/06/01 02:25:51;;;;;;;4.03;3.65;;;;;;;;;;5007158;28;20057;-80
2021/06/01 02:28:26;;;;;;;5.10;4.30;;;;;;;;;;4985530;28;20061;-79
2021/06/01 02:30:57;;;;;;;4.38;3.97;;;;;;;;;;4958804;28;20082;-79
2021/06/01 02:33:24;;;;;;;4.50;4.10;;;;;;;;;;4959733;28;20062;-79
2021/06/01 02:35:51;;;;;;;4.32;3.92;;;;;;;;;;4958014;28;20047;-80
2021/06/01 02:38:17;;;;;;;9.45;6.28;;;;;;;;;;4964872;28;20093;-80
2021/06/01 02:40:45;;;;;;;6.22;4.88;;;;;;;;;;4992238;28;20046;-80
2021/06/01 02:43:13;;;;;;;7.80;4.03;;;;;;;;;;4992630;28;20053;-80
2021/06/01 02:45:44;;;;;;;4.35;3.95;;;;;;;;;;4992085;28;20457;-79
2021/06/01 02:48:12;;;;;;;4.43;4.03;;;;;;;;;;4985686;28;20055;-80
2021/06/01 02:50:43;;;;;;;5.93;4.18;;;;;;;;;;4956604;28;20474;-79
2021/06/01 02:53:12;;;;;;;4.35;3.95;;;;;;;;;;4957483;28;20052;-79
2021/06/01 02:55:38;;;;;;;4.18;3.78;;;;;;;;;;5008477;23;20093;-75
2021/06/01 02:58:07;;;;;;;4.75;4.13;;;;;;;;;;5010479;28;20050;-75
2021/06/01 03:00:37;;;;;;;4.13;3.72;;;;;;;;;;5010397;28;20104;-75
2021/06/01 03:03:13;;;;;;;4.50;4.10;;;;;;;;;;5010521;28;20100;-76
2021/06/01 03:05:40;;;;;;;5.68;4.30;;;;;;;;;;4993608;28;20053;-75
2021/06/01 03:08:27;;;;;;;5.07;3.97;;;;;;;;;;5010341;28;20050;-75
2021/06/01 03:10:59;;;;;;;5.95;4.20;;;;;;;;;;5010205;28;20077;-75
2021/06/01 03:13:26;;;;;;;7.03;3.88;;;;;;;;;;5010459;28;20092;-75
2021/06/01 03:15:53;;;;;;;6.10;4.35;;;;;;;;;;5011005;28;20078;-75
2021/06/01 03:18:20;;;;;;;5.05;4.00;;;;;;;;;;5005431;28;20056;-75
2021/06/01 03:20:47;;;;;;;6.13;4.30;;;;;;;;;;4995426;28;20050;-76
2021/06/01 03:23:14;;;;;;;6.35;5.07;;;;;;;;;;4995335;28;20073;-75
2021/06/01 03:25:41;;;;;;;6.43;4.68;;;;;;;;;;4977710;28;20563;-76
2021/06/01 03:28:08;;;;;;;7.28;5.18;;;;;;;;;;5010097;28;20081;-75
2021/06/01 03:30:35;;;;;;;5.20;4.70;;;;;;;;;;4993884;28;20050;-75
2021/06/01 03:33:02;;;;;;;8.10;5.40;;;;;;;;;;4994965;28;20493;-75
2021/06/01 03:35:28;;;;;;;5.43;4.30;;;;;;;;;;4994804;28;20084;-76
2021/06/01 03:37:56;;;;;;;7.00;4.93;;;;;;;;;;4994939;28;20093;-76
2021/06/01 03:40:23;;;;;;;5.43;4.80;;;;;;;;;;4993775;28;20062;-76
2021/06/01 03:42:51;;;;;;;5.35;4.85;;;;;;;;;;4993798;28;20536;-75
2021/06/01 03:45:19;;;;;;;5.28;4.40;;;;;;;;;;4993606;28;20054;-76
2021/06/01 03:47:45;;;;;;;6.90;4.70;;;;;;;;;;5011533;28;20090;-76
2021/06/01 03:50:12;;;;;;;6.72;4.72;;;;;;;;;;5001731;28;20086;-76
2021/06/01 03:52:39;;;;;;;7.90;5.70;;;;;;;;;;4994549;28;20116;-76
2021/06/01 03:55:06;;;;;;;7.70;4.88;;;;;;;;;;4993398;28;20109;-76
2021/06/01 03:57:32;;;;;;;5.00;4.50;;;;;;;;;;4994702;28;20050;-76
2021/06/01 03:59:59;;;;;;;6.32;4.82;;;;;;;;;;5013818;28;20096;-76
2021/06/01 04:02:26;;;;;;;5.93;4.50;;;;;;;;;;5014222;28;20042;-75
2021/06/01 04:04:52;;;;;;;5.68;4.85;;;;;;;;;;5012822;28;20131;-75
2021/06/01 04:07:19;;;;;;;5.45;4.32;;;;;;;;;;5013973;28;20089;-76
2021/06/01 04:09:45;;;;;;;5.88;4.30;;;;;;;;;;5014135;28;20089;-75
2021/06/01 04:12:12;;;;;;;5.30;4.78;;;;;;;;;;5012861;28;20081;-75
2021/06/01 04:14:39;;;;;;;6.18;4.65;;;;;;;;;;5014130;28;20052;-75
2021/06/01 04:17:05;;;;;;;5.50;4.93;;;;;;;;;;5013183;28;20511;-76
2021/06/01 04:19:33;;;;;;;7.57;5.10;;;;;;;;;;5013839;28;20093;-76
2021/06/01 04:22:00;;;;;;;6.80;4.63;;;;;;;;;;5012829;28;20046;-75
2021/06/01 04:24:28;;;;;;;5.78;4.63;;;;;;;;;;5013680;28;20049;-75
2021/06/01 04:26:58;;;;;;;7.93;4.60;;;;;;;;;;4993795;28;20101;-75
2021/06/01 04:29:25;;;;;;;5.13;4.22;;;;;;;;;;4992425;28;20477;-76
2021/06/01 04:31:52;;;;;;;6.22;4.78;;;;;;;;;;5009008;28;20481;-76
2021/06/01 04:34:19;;;;;;;6.85;4.93;;;;;;;;;;4993967;28;20054;-75
2021/06/01 04:36:46;;;;;;;5.70;5.20;;;;;;;;;;4992816;28;20551;-76
2021/06/01 04:39:12;;;;;;;7.20;4.68;;;;;;;;;;4992767;28;20089;-76
2021/06/01 04:41:39;;;;;;;6.68;4.80;;;;;;;;;;4992681;28;20096;-76
2021/06/01 04:44:06;;;;;;;5.45;4.32;;;;;;;;;;5009020;28;20050;-75
2021/06/01 04:46:33;;;;;;;7.03;5.40;;;;;;;;;;4992488;28;20058;-76
2021/06/01 04:49:00;;;;;;;7.75;5.25;;;;;;;;;;4993847;28;20464;-76
2021/06/01 04:51:27;;;;;;;8.57;5.60;;;;;;;;;;4992502;28;20085;-76
2021/06/01 04:53:57;;;;;;;5.65;5.07;;;;;;;;;;4992878;28;20093;-76
2021/06/01 04:56:25;;;;;;;6.75;4.95;;;;;;;;;;5008570;28;20086;-76
2021/06/01 04:58:52;;;;;;;6.30;5.43;;;;;;;;;;4992687;28;20062;-76
2021/06/01 05:01:19;;;;;;;5.32;4.78;;;;;;;;;;4992524;28;20117;-76
2021/06/01 05:03:46;;;;;;;6.25;5.28;;;;;;;;;;4992618;28;20050;-76
2021/06/01 05:06:12;;;;;;;6.25;4.93;;;;;;;;;;4999480;28;20046;-76
2021/06/01 05:08:39;;;;;;;6.30;4.28;;;;;;;;;;5023650;28;20046;-76
2021/06/01 05:11:05;;;;;;;6.03;5.43;;;;;;;;;;5036152;28;20042;-76
2021/06/01 05:13:32;;;;;;;7.72;4.55;;;;;;;;;;5037094;28;20034;-76
2021/06/01 05:15:58;;;;;;;7.18;5.30;;;;;;;;;;5036372;28;20050;-76
2021/06/01 05:18:25;;;;;;;10.77;5.65;;;;;;;;;;5033029;28;20040;-76
2021/06/01 05:21:04;;;;;;;6.88;5.15;;;;;;;;;;5030610;28;20046;-75
2021/06/01 05:23:31;;;;;;;7.25;5.05;;;;;;;;;;5013767;28;20054;-75
2021/06/01 05:25:57;;;;;;;9.20;5.18;;;;;;;;;;5030399;28;20054;-76
2021/06/01 05:28:24;;;;;;;7.32;4.97;;;;;;;;;;5032995;28;20050;-76
2021/06/01 05:31:04;;;;;;;8.70;4.95;;;;;;;;;;5032493;28;20064;-76
2021/06/01 05:33:33;;;;;;;5.97;4.70;;;;;;;;;;5032368;28;20053;-76
2021/06/01 05:36:01;;;;;;;8.10;4.82;;;;;;;;;;5034098;28;20041;-76
2021/06/01 05:38:31;;;;;;;6.75;5.13;;;;;;;;;;5033751;28;20050;-76
2021/06/01 05:40:59;;;;;;;8.50;5.50;;;;;;;;;;5029459;28;20053;-76
2021/06/01 05:43:26;;;;;;;8.70;4.88;;;;;;;;;;5036004;28;20042;-78
2021/06/01 05:45:52;;;;;;;5.05;4.32;;;;;;;;;;5034827;28;20050;-78
2021/06/01 05:48:20;;;;;;;4.32;3.83;;;;;;;;;;5035089;28;20029;-75
2021/06/01 05:50:46;;;;;;;9.60;4.88;;;;;;;;;;5028481;28;20061;-75
2021/06/01 05:53:15;;;;;;;7.25;4.40;;;;;;;;;;5027838;28;20085;-75
2021/06/01 05:55:41;;;;;;;4.55;3.75;;;;;;;;;;5033738;28;20045;-75
2021/06/01 05:58:08;;;;;;;4.88;3.45;;;;;;;;;;5050895;28;20037;-77
2021/06/01 06:00:34;;;;;;;3.72;3.38;;;;;;;;;;5034685;28;20030;-77
2021/06/01 06:03:02;;;;;;;3.95;3.40;;;;;;;;;;5035661;28;20042;-78
2021/06/01 06:05:29;;;;;;;4.55;3.40;;;;;;;;;;5019246;28;20079;-79
2021/06/01 06:08:07;;;;;;;6.75;3.30;;;;;;;;;;5035747;28;20046;-83
2021/06/01 06:10:34;;;;;;;5.38;3.00;;;;;;;;;;5019688;28;20283;-82
2021/06/01 06:13:01;;;;;;;5.38;2.92;;;;;;;;;;5035586;28;20060;-82
2021/06/01 06:15:28;;;;;;;4.55;2.67;;;;;;;;;;5034596;28;20049;-80
2021/06/01 06:18:14;;;;;;;2.65;2.45;;;;;;;;;;5035988;28;20053;-80
2021/06/01 06:20:41;;;;;;;3.35;2.83;;;;;;;;;;5033961;28;20034;-80
2021/06/01 06:23:08;;;;;;;4.60;3.00;;;;;;;;;;5016489;28;20034;-81
2021/06/01 06:25:34;;;;;;;5.55;2.83;;;;;;;;;;5016148;28;20030;-81
2021/06/01 06:28:01;;;;;;;3.67;2.80;;;;;;;;;;5016703;28;20134;-82
2021/06/01 06:30:28;;;;;;;3.90;2.88;;;;;;;;;;5031150;28;20030;-83
2021/06/01 06:32:55;;;;;;;3.10;2.55;;;;;;;;;;5016113;28;20042;-85
2021/06/01 06:35:21;;;;;;;4.63;3.25;;;;;;;;;;5016152;28;20055;-80
2021/06/01 06:37:48;;;;;;;3.85;2.47;;;;;;;;;;5031297;28;20046;-79
2021/06/01 06:40:16;;;;;;;4.80;3.15;;;;;;;;;;5034511;28;20059;-78
2021/06/01 06:42:43;;;;;;;4.15;2.78;;;;;;;;;;5023735;28;20027;-80
2021/06/01 06:45:11;;;;;;;2.63;2.15;;;;;;;;;;5029688;28;20034;-75
2021/06/01 06:50:17;;;;;;;3.35;2.88;;;;;;;;;;5012472;28;20026;-73
2021/06/01 06:52:44;;;;;;;2.50;2.30;;;;;;;;;;5014081;28;20069;-75
2021/06/01 06:55:11;;;;;;;2.50;2.28;;;;;;;;;;5014710;28;20058;-73
2021/06/01 06:57:39;;;;;;;3.75;2.65;;;;;;;;;;5015325;28;20089;-75
2021/06/01 07:00:08;;;;;;;2.05;1.85;;;;;;;;;;5014811;28;20069;-74
2021/06/01 07:02:36;;;;;;;2.80;2.33;;;;;;;;;;5013261;28;20046;-76
2021/06/01 07:05:06;;;;;;;6.40;2.20;;;;;;;;;;5012052;28;20045;-75
2021/06/01 07:07:32;;;;;;;3.25;2.17;;;;;;;;;;5010558;28;20074;-75
2021/06/01 07:10:00;;;;;;;3.35;2.33;;;;;;;;;;5007569;28;20050;-74
2021/06/01 07:12:27;;;;;;;3.97;3.38;;;;;;;;;;5005567;28;20046;-74
2021/06/01 07:15:22;;;;;;;2.40;2.03;;;;;;;;;;5003956;28;20049;-74
2021/06/01 07:17:55;;;;;;;2.10;1.85;;;;;;;;;;5004460;28;20101;-72
2021/06/01 07:20:22;;;;;;;3.78;2.15;;;;;;;;;;5001875;28;20062;-73
2021/06/01 07:22:49;;;;;;;2.85;2.15;;;;;;;;;;5002153;28;20556;-73
2021/06/01 07:25:16;;;;;;;5.18;2.20;;;;;;;;;;5001082;28;20050;-74
2021/06/01 07:27:43;;;;;;;1.70;1.60;;;;;;;;;;4994817;28;20114;-73
2021/06/01 07:30:10;;;;;;;3.75;2.60;;;;;;;;;;4998659;28;20046;-74
2021/06/01 07:32:37;;;;;;;3.85;2.20;;;;;;;;;;4993860;28;20038;-74
2021/06/01 07:35:04;;;;;;;3.67;2.40;;;;;;;;;;4993510;28;20181;-74
2021/06/01 07:37:31;;;;;;;2.45;2.25;;;;;;;;;;4993849;28;20105;-74
2021/06/01 07:39:57;;;;;;;4.68;1.80;;;;;;;;;;4992423;28;20109;-74
2021/06/01 07:42:24;;;;;;;3.25;2.05;;;;;;;;;;4994024;28;20077;-74
2021/06/01 07:44:51;;;;;;;2.42;2.08;;;;;;;;;;4994397;28;20081;-72
2021/06/01 07:47:17;;;;;;;2.17;1.98;;;;;;;;;;5009505;28;20493;-73
2021/06/01 07:49:44;;;;;;;7.05;2.50;;;;;;;;;;5009322;28;20046;-73
2021/06/01 07:52:11;;;;;;;5.28;2.17;;;;;;;;;;5009111;28;20081;-74
2021/06/01 07:54:37;;;;;;;3.22;1.90;;;;;;;;;;5011052;28;20042;-73
2021/06/01 07:57:04;;;;;;;4.25;2.10;;;;;;;;;;5009587;28;20054;-73
2021/06/01 07:59:31;;;;;;;5.32;2.45;;;;;;;;;;5006373;28;20034;-74
2021/06/01 08:01:57;;;;;;;4.00;2.10;;;;;;;;;;5012398;28;20058;-73
2021/06/01 08:04:24;;;;;;;2.53;2.00;;;;;;;;;;5012575;28;20136;-74
2021/06/01 08:06:50;;;;;;;2.42;2.00;;;;;;;;;;5010413;28;20050;-73
2021/06/01 08:09:17;;;;;;;2.88;1.80;;;;;;;;;;5004551;28;20050;-74
2021/06/01 08:11:44;;;;;;;3.58;2.20;;;;;;;;;;4996894;28;20050;-74
2021/06/01 08:14:11;;;;;;;2.25;2.05;;;;;;;;;;4999696;28;20046;-74
2021/06/01 08:16:40;;;;;;;3.25;1.95;;;;;;;;;;4992896;28;20054;-75
2021/06/01 08:19:10;;;;;;;2.63;1.90;;;;;;;;;;4993321;28;20082;-74
2021/06/01 08:24:06;;;;;;;3.55;1.88;;;;;;;;;;4989827;28;20070;-74
2021/06/01 08:26:33;;;;;;;3.55;2.10;;;;;;;;;;4992526;28;20074;-74
2021/06/01 08:29:00;;;;;;;1.80;1.70;;;;;;;;;;4991497;28;20079;-74
2021/06/01 08:31:27;;;;;;;4.10;2.22;;;;;;;;;;4993120;28;20084;-74
2021/06/01 08:33:53;;;;;;;3.22;2.13;;;;;;;;;;4994845;28;20077;-73
2021/06/01 08:36:20;;;;;;;2.42;2.00;;;;;;;;;;5008087;28;20046;-73
2021/06/01 08:38:47;;;;;;;2.63;1.85;;;;;;;;;;4991525;28;20078;-73
2021/06/01 08:41:16;;;;;;;4.30;2.83;;;;;;;;;;4989991;28;20077;-74
2021/06/01 08:43:43;;;;;;;1.92;1.73;;;;;;;;;;4986153;28;20086;-74
2021/06/01 08:46:10;;;;;;;3.03;2.15;;;;;;;;;;4992721;28;20050;-74
2021/06/01 08:48:37;;;;;;;2.67;1.52;;;;;;;;;;4992400;28;20050;-74
2021/06/01 08:51:06;;;;;;;3.15;1.60;;;;;;;;;;4991888;28;20089;-75
2021/06/01 08:53:33;;;;;;;1.90;1.80;;;;;;;;;;4992898;28;20132;-74
2021/06/01 08:56:00;;;;;;;5.47;1.77;;;;;;;;;;5009368;23;20343;-72
2021/06/01 08:58:27;;;;;;;3.83;1.77;;;;;;;;;;4952969;28;20490;-72
2021/06/01 09:00:54;;;;;;;2.03;1.83;;;;;;;;;;4944696;28;20047;-72
2021/06/01 09:03:24;;;;;;;3.72;2.13;;;;;;;;;;4945097;28;20133;-72
2021/06/01 09:06:03;;;;;;;2.63;1.65;;;;;;;;;;4953662;28;20061;-72
2021/06/01 09:11:41;;;;;;;1.88;1.70;;;;;;;;;;4968736;28;20046;-72
2021/06/01 09:22:49;;;;;;;2.20;1.70;;;;;;;;;;4969039;28;20047;-72
2021/06/01 09:25:35;;;;;;;2.63;1.70;;;;;;;;;;4945763;28;20055;-72
2021/06/01 09:28:10;;;;;;;1.80;1.65;;;;;;;;;;4946853;28;20519;-72
2021/06/01 09:30:58;;;;;;;3.45;1.98;;;;;;;;;;4938706;28;20063;-72
2021/06/01 09:33:33;;;;;;;4.97;1.75;;;;;;;;;;4977823;28;20070;-72
2021/06/01 09:36:02;;;;;;;2.85;1.98;;;;;;;;;;4933659;28;20463;-72
2021/06/01 09:38:30;;;;;;;2.30;1.45;;;;;;;;;;4949356;28;20051;-73
2021/06/01 09:41:18;;;;;;;2.85;1.80;;;;;;;;;;4968430;28;20059;-73
2021/06/01 09:43:56;;;;;;;2.55;1.60;;;;;;;;;;4961910;28;20042;-73
2021/06/01 09:46:24;;;;;;;2.60;1.70;;;;;;;;;;4938899;28;20051;-72
2021/06/01 09:48:51;;;;;;;2.55;1.50;;;;;;;;;;4976560;28;20054;-73
2021/06/01 09:51:36;;;;;;;3.50;1.92;;;;;;;;;;4943982;28;20047;-73
2021/06/01 09:54:29;;;;;;;3.97;1.80;;;;;;;;;;4972315;28;20047;-73
2021/06/01 09:56:57;;;;;;;1.90;1.40;;;;;;;;;;4956267;28;20062;-73
2021/06/01 09:59:24;;;;;;;4.28;1.70;;;;;;;;;;4947099;28;20053;-73
2021/06/01 10:01:50;;;;;;;2.58;1.70;;;;;;;;;;4943958;28;20050;-73
2021/06/01 10:04:25;;;;;;;2.63;1.55;;;;;;;;;;4938693;28;20125;-73
2021/06/01 10:06:52;;;;;;;4.07;1.92;;;;;;;;;;4957957;28;21132;-73
2021/06/01 10:09:19;;;;;;;3.33;1.50;;;;;;;;;;4968798;28;20055;-73
2021/06/01 10:11:56;;;;;;;3.35;1.50;;;;;;;;;;4952135;28;20051;-73
2021/06/01 10:14:24;;;;;;;4.75;1.50;;;;;;;;;;4960998;28;20053;-73
2021/06/01 10:16:51;;;;;;;3.15;1.65;;;;;;;;;;4954187;28;20054;-74
2021/06/01 10:19:19;;;;;;;1.73;1.58;;;;;;;;;;4958997;28;20113;-75
2021/06/01 10:21:45;;;;;;;2.28;1.80;;;;;;;;;;4944631;28;20422;-79
2021/06/01 10:24:14;;;;;;;4.25;1.55;;;;;;;;;;4944373;28;20061;-79
2021/06/01 10:26:41;;;;;;;2.00;1.33;;;;;;;;;;4952963;28;20062;-77
2021/06/01 10:29:08;;;;;;;2.42;1.50;;;;;;;;;;4947103;28;20549;-78
2021/06/01 10:31:42;;;;;;;1.73;1.63;;;;;;;;;;4958163;28;20570;-79
2021/06/01 10:34:11;;;;;;;2.35;1.75;;;;;;;;;;4945575;28;20046;-79
2021/06/01 10:48:46;;;;;;;2.13;1.45;;;;;;;;;;4966361;28;20579;-79
2021/06/01 10:53:08;;;;;;;2.60;1.40;;;;;;;;;;4972085;28;20073;-79
2021/06/01 10:56:02;;;;;;;2.60;1.73;;;;;;;;;;4961847;28;20058;-79
2021/06/01 10:58:38;;;;;;;2.05;1.45;;;;;;;;;;4971160;28;20418;-77
2021/06/01 11:04:19;;;;;;;2.35;1.63;;;;;;;;;;4964759;28;20074;-78
2021/06/01 11:07:13;;;;;;;2.03;1.70;;;;;;;;;;4974493;28;20055;-78
2021/06/01 11:09:40;;;;;;;1.58;1.48;;;;;;;;;;4961221;28;20055;-78
2021/06/01 11:12:18;;;;;;;1.63;1.42;;;;;;;;;;4977563;28;20479;-78
2021/06/01 11:14:45;;;;;;;1.80;1.70;;;;;;;;;;4980025;28;20047;-78
2021/06/01 11:17:12;;;;;;;1.83;1.70;;;;;;;;;;4973652;28;20069;-76
2021/06/01 11:20:00;;;;;;;2.47;1.30;;;;;;;;;;4970224;28;20058;-76
2021/06/01 11:22:38;;;;;;;1.55;1.30;;;;;;;;;;4964186;28;20078;-80
2021/06/01 11:33:37;;;;;;;2.53;1.85;;;;;;;;;;4965658;28;20046;-78
2021/06/01 11:36:06;;;;;;;5.75;1.77;;;;;;;;;;4964207;28;20047;-81
2021/06/01 11:43:52;;;;;;;1.75;1.52;;;;;;;;;;4952167;28;20046;-79
2021/06/01 11:46:28;;;;;;;1.92;1.80;;;;;;;;;;4964621;28;20051;-79
2021/06/01 11:51:26;;;;;;;8.15;2.13;;;;;;;;;;4955464;28;20114;-79
2021/06/01 11:54:15;;;;;;;1.83;1.38;;;;;;;;;;4953442;28;20079;-79
2021/06/01 12:18:42;;;;;;;3.50;1.70;;;;;;;;;;4959112;28;20115;-75
2021/06/01 12:21:12;;;;;;;1.88;1.67;;;;;;;;;;4969234;28;20430;-74
2021/06/01 12:23:40;;;;;;;2.03;1.83;;;;;;;;;;4970449;28;20066;-74
2021/06/01 12:32:21;;;;;;;3.45;1.60;;;;;;;;;;4972235;28;20120;-75
2021/06/01 13:39:12;;;;;;;1.17;1.08;;;;;;;;;;4970661;28;20498;-72
2021/06/01 13:47:11;;;;;;;1.40;1.25;;;;;;;;;;4956455;28;20078;-72
2021/06/01 13:49:50;;;;;;;1.95;1.23;;;;;;;;;;4958612;28;20133;-73
2021/06/01 14:28:02;;;;;;;1.30;1.17;;;;;;;;;;4976061;28;20058;-72
2021/06/01 14:38:53;;;;;;;1.23;1.15;;;;;;;;;;4967129;28;20046;-71
2021/06/01 15:49:31;;;;;;;2.25;1.52;;;;;;;;;;5003005;28;20046;-74
2021/06/01 16:14:06;;;;;;;2.33;1.63;;;;;;;;;;5009160;28;20041;-74
2021/06/01 16:33:27;;;;;;;2.20;1.42;;;;;;;;;;5002055;28;20097;-71
2021/06/01 16:44:15;;;;;;;3.65;1.40;;;;;;;;;;4987808;28;20051;-71
2021/06/01 17:03:18;;;;;;;3.60;1.58;;;;;;;;;;4999724;28;20057;-70
2021/06/01 17:05:49;;;;;;;2.63;1.40;;;;;;;;;;4997547;28;20545;-70
2021/06/01 17:11:04;;;;;;;2.13;1.50;;;;;;;;;;4997830;28;20165;-70
2021/06/01 17:13:58;;;;;;;1.98;1.50;;;;;;;;;;5015019;28;20085;-70
2021/06/01 17:16:55;;;;;;;2.63;1.63;;;;;;;;;;5001811;28;20077;-70
2021/06/01 17:35:32;;;;;;;5.65;1.90;;;;;;;;;;5000085;28;20081;-74
2021/06/01 17:38:04;;;;;;;2.47;1.60;;;;;;;;;;5000515;28;20480;-75
2021/06/01 17:40:32;;;;;;;3.00;1.60;;;;;;;;;;4985818;28;20467;-73
2021/06/01 17:43:02;;;;;;;1.45;1.35;;;;;;;;;;5000795;28;20104;-73
2021/06/01 17:45:29;;;;;;;3.15;1.42;;;;;;;;;;5001676;28;20050;-73
2021/06/01 17:48:03;;;;;;;1.92;1.50;;;;;;;;;;5032695;28;20054;-72
2021/06/01 17:50:30;;;;;;;1.70;1.35;;;;;;;;;;5013528;28;20558;-72
2021/06/01 17:52:58;;;;;;;1.55;1.30;;;;;;;;;;4999493;28;20115;-72
2021/06/01 17:55:27;;;;;;;5.10;2.05;;;;;;;;;;5001115;28;20038;-74
2021/06/01 17:57:55;;;;;;;4.05;1.60;;;;;;;;;;4975440;28;20425;-76
2021/06/01 18:00:23;;;;;;;1.63;1.52;;;;;;;;;;4998699;28;20050;-77
2021/06/01 18:02:50;;;;;;;4.47;1.42;;;;;;;;;;4999745;28;20050;-77
2021/06/01 18:05:20;;;;;;;2.30;1.58;;;;;;;;;;5001658;28;20496;-77
2021/06/01 18:08:00;;;;;;;4.10;1.48;;;;;;;;;;5004428;28;20066;-77
2021/06/01 18:29:36;;;;;;;3.55;1.50;;;;;;;;;;4999334;28;20082;-77
2021/06/01 18:41:26;;;;;;;2.03;1.52;;;;;;;;;;5036535;28;20054;-76
2021/06/01 19:24:31;;;;;;;2.35;2.03;;;;;;;;;;5014067;28;20042;-76
2021/06/01 19:51:45;;;;;;;2.65;2.20;;;;;;;;;;5013396;28;20078;-72
2021/06/01 19:54:19;;;;;;;2.38;2.08;;;;;;;;;;5014528;28;20076;-72
2021/06/01 19:56:47;;;;;;;2.20;2.00;;;;;;;;;;5012841;28;20473;-72
2021/06/01 19:59:16;;;;;;;6.22;2.65;;;;;;;;;;5014042;28;20050;-73
2021/06/01 20:01:43;;;;;;;2.40;2.20;;;;;;;;;;5013690;28;20085;-72
2021/06/01 20:04:13;;;;;;;2.28;1.77;;;;;;;;;;5013927;28;20140;-72
2021/06/01 20:06:39;;;;;;;4.40;1.90;;;;;;;;;;5013805;28;20464;-72
2021/06/01 20:09:07;;;;;;;3.22;1.95;;;;;;;;;;5014474;28;20441;-72
2021/06/01 20:11:34;;;;;;;3.05;2.08;;;;;;;;;;5029278;28;20084;-72
2021/06/01 20:14:02;;;;;;;4.82;2.58;;;;;;;;;;5012912;28;20064;-72
2021/06/01 20:16:29;;;;;;;2.67;1.98;;;;;;;;;;5013695;28;20108;-72
2021/06/01 20:19:00;;;;;;;2.97;1.83;;;;;;;;;;5028907;28;20050;-72
2021/06/01 20:21:27;;;;;;;3.97;2.30;;;;;;;;;;5012538;28;20501;-72
2021/06/01 20:23:57;;;;;;;2.50;2.10;;;;;;;;;;5012556;28;20097;-72
2021/06/01 20:26:24;;;;;;;2.78;2.17;;;;;;;;;;5013337;28;20046;-72
2021/06/01 20:28:53;;;;;;;3.30;2.33;;;;;;;;;;5012529;28;20081;-72
2021/06/01 20:31:30;;;;;;;6.22;2.60;;;;;;;;;;5012609;28;20085;-72
2021/06/01 20:34:02;;;;;;;4.50;2.42;;;;;;;;;;5013511;28;20050;-72
2021/06/01 20:36:29;;;;;;;4.82;2.50;;;;;;;;;;5013385;28;20050;-72
2021/06/01 20:38:56;;;;;;;3.55;2.38;;;;;;;;;;5013550;28;20118;-72
2021/06/01 20:41:23;;;;;;;4.40;2.53;;;;;;;;;;5012279;28;20443;-72
2021/06/01 20:43:54;;;;;;;3.45;2.30;;;;;;;;;;5013541;28;20054;-72
2021/06/01 20:46:21;;;;;;;3.45;2.70;;;;;;;;;;4992522;28;20046;-72
2021/06/01 20:48:47;;;;;;;5.38;2.20;;;;;;;;;;4992653;28;20512;-72
2021/06/01 20:51:14;;;;;;;5.78;2.50;;;;;;;;;;4992486;28;20097;-72
2021/06/01 20:53:41;;;;;;;5.82;2.60;;;;;;;;;;4992598;28;20097;-72
2021/06/01 20:56:07;;;;;;;3.10;2.60;;;;;;;;;;4993237;28;20685;-72
2021/06/01 20:58:41;;;;;;;3.92;2.45;;;;;;;;;;4994108;28;20093;-73
2021/06/01 21:01:14;;;;;;;5.40;2.70;;;;;;;;;;4992429;28;20078;-73
2021/06/01 21:03:45;;;;;;;3.80;2.35;;;;;;;;;;5004527;28;20057;-73
2021/06/01 21:06:12;;;;;;;3.38;2.70;;;;;;;;;;5011578;28;20074;-73
2021/06/01 21:08:39;;;;;;;7.00;2.72;;;;;;;;;;5027956;28;20128;-73
2021/06/01 21:11:09;;;;;;;3.03;2.28;;;;;;;;;;5012881;28;20073;-74
2021/06/01 21:13:36;;;;;;;3.85;2.38;;;;;;;;;;5011530;28;20050;-74
2021/06/01 21:16:04;;;;;;;4.88;2.80;;;;;;;;;;5011225;28;20129;-73
2021/06/01 21:18:30;;;;;;;6.07;4.20;;;;;;;;;;5011691;28;20116;-73
2021/06/01 21:20:57;;;;;;;8.80;3.92;;;;;;;;;;5011600;28;20172;-73
2021/06/01 21:23:23;;;;;;;4.63;3.17;;;;;;;;;;5012729;28;20464;-73
2021/06/01 21:25:50;;;;;;;3.90;2.83;;;;;;;;;;5011263;28;20304;-73
2021/06/01 21:28:17;;;;;;;4.15;2.58;;;;;;;;;;5012567;28;20108;-73
2021/06/01 21:30:43;;;;;;;3.42;2.30;;;;;;;;;;5012600;28;20484;-74
2021/06/01 21:33:18;;;;;;;3.05;2.13;;;;;;;;;;5011250;28;20050;-73
2021/06/01 21:35:48;;;;;;;4.18;2.85;;;;;;;;;;5012199;28;20096;-73
2021/06/01 21:38:22;;;;;;;4.18;2.70;;;;;;;;;;5012412;28;20050;-74
2021/06/01 21:40:49;;;;;;;3.28;2.58;;;;;;;;;;5012413;28;20073;-74
2021/06/01 21:43:15;;;;;;;5.60;3.28;;;;;;;;;;5011387;28;20081;-73
2021/06/01 21:45:42;;;;;;;3.90;2.30;;;;;;;;;;5012033;28;20089;-74
2021/06/01 21:48:11;;;;;;;4.18;3.05;;;;;;;;;;5011004;28;20049;-73
2021/06/01 21:50:40;;;;;;;3.70;3.33;;;;;;;;;;5011061;28;20049;-73
2021/06/01 21:53:10;;;;;;;2.80;2.55;;;;;;;;;;5011272;28;20085;-72
2021/06/01 21:55:38;;;;;;;4.70;2.50;;;;;;;;;;5010817;28;20054;-74
2021/06/01 21:58:05;;;;;;;5.35;2.90;;;;;;;;;;5011925;28;20053;-74
2021/06/01 22:00:37;;;;;;;2.97;2.67;;;;;;;;;;5012135;28;20088;-73
2021/06/01 22:03:05;;;;;;;5.03;3.05;;;;;;;;;;5010833;28;20136;-73
2021/06/01 22:05:33;;;;;;;5.03;2.90;;;;;;;;;;5011710;28;20523;-74
2021/06/01 22:08:00;;;;;;;5.75;3.00;;;;;;;;;;5011917;28;20050;-74
2021/06/01 22:10:27;;;;;;;5.85;3.05;;;;;;;;;;4994685;28;20466;-73
2021/06/01 22:12:57;;;;;;;7.63;2.88;;;;;;;;;;5011943;28;20137;-72
2021/06/01 22:15:38;;;;;;;5.05;2.88;;;;;;;;;;5010514;28;20559;-73
2021/06/01 22:18:17;;;;;;;4.47;2.97;;;;;;;;;;5011690;28;20049;-72